sensor_id;sensor_type;location;lat;lon;timestamp;P1;durP1;ratioP1;P2;durP2;ratioP2
10313;SDS011;5202;49.138;10.090;2023-06-14T00:00:44;5.18;;;3.25;;
10313;SDS011;5202;49.138;10.090;2023-06-14T00:03:16;5.35;;;3.58;;
10313;SDS011;5202;49.138;10.090;2023-06-14T00:05:46;8.50;;;3.63;;
10313;SDS011;5202;49.138;10.090;2023-06-14T00:08:14;4.18;;;3.05;;
10313;SDS011;5202;49.138;10.090;2023-06-14T00:10:45;5.80;;;3.35;;
10313;SDS011;5202;49.138;10.090;2023-06-14T00:13:13;3.80;;;3.40;;
10313;SDS011;5202;49.138;10.090;2023-06-14T00:15:41;5.32;;;3.60;;
10313;SDS011;5202;49.138;10.090;2023-06-14T00:18:10;4.45;;;3.60;;
10313;SDS011;5202;49.138;10.090;2023-06-14T00:20:41;4.43;;;3.45;;
10313;SDS011;5202;49.138;10.090;2023-06-14T00:23:10;5.18;;;3.38;;
10313;SDS011;5202;49.138;10.090;2023-06-14T00:25:39;3.72;;;3.30;;
10313;SDS011;5202;49.138;10.090;2023-06-14T00:28:07;4.22;;;3.60;;
10313;SDS011;5202;49.138;10.090;2023-06-14T00:30:35;3.60;;;3.28;;
10313;SDS011;5202;49.138;10.090;2023-06-14T00:33:04;6.72;;;3.92;;
10313;SDS011;5202;49.138;10.090;2023-06-14T00:35:32;4.05;;;3.55;;
10313;SDS011;5202;49.138;10.090;2023-06-14T00:38:04;5.05;;;3.42;;
10313;SDS011;5202;49.138;10.090;2023-06-14T00:40:32;4.40;;;3.35;;
10313;SDS011;5202;49.138;10.090;2023-06-14T00:43:01;3.75;;;3.35;;
10313;SDS011;5202;49.138;10.090;2023-06-14T00:45:29;5.55;;;3.63;;
10313;SDS011;5202;49.138;10.090;2023-06-14T00:48:02;6.78;;;3.55;;
10313;SDS011;5202;49.138;10.090;2023-06-14T00:50:33;5.20;;;3.85;;
10313;SDS011;5202;49.138;10.090;2023-06-14T00:53:04;4.45;;;3.42;;
10313;SDS011;5202;49.138;10.090;2023-06-14T00:55:33;4.07;;;3.67;;
10313;SDS011;5202;49.138;10.090;2023-06-14T00:58:01;4.75;;;3.30;;
10313;SDS011;5202;49.138;10.090;2023-06-14T01:00:29;4.03;;;3.33;;
10313;SDS011;5202;49.138;10.090;2023-06-14T01:02:58;5.60;;;4.10;;
10313;SDS011;5202;49.138;10.090;2023-06-14T01:05:28;5.03;;;3.58;;
10313;SDS011;5202;49.138;10.090;2023-06-14T01:08:03;3.95;;;3.55;;
10313;SDS011;5202;49.138;10.090;2023-06-14T01:10:56;4.30;;;3.63;;
10313;SDS011;5202;49.138;10.090;2023-06-14T01:13:32;4.38;;;3.50;;
10313;SDS011;5202;49.138;10.090;2023-06-14T01:16:02;5.20;;;3.88;;
10313;SDS011;5202;49.138;10.090;2023-06-14T01:18:32;6.22;;;3.92;;
10313;SDS011;5202;49.138;10.090;2023-06-14T01:21:01;4.05;;;3.28;;
10313;SDS011;5202;49.138;10.090;2023-06-14T01:23:33;4.95;;;3.55;;
10313;SDS011;5202;49.138;10.090;2023-06-14T01:26:01;5.53;;;3.55;;
10313;SDS011;5202;49.138;10.090;2023-06-14T01:28:31;6.70;;;3.90;;
10313;SDS011;5202;49.138;10.090;2023-06-14T01:31:01;5.43;;;3.40;;
10313;SDS011;5202;49.138;10.090;2023-06-14T01:33:32;5.22;;;3.60;;
10313;SDS011;5202;49.138;10.090;2023-06-14T01:36:02;5.65;;;3.35;;
10313;SDS011;5202;49.138;10.090;2023-06-14T01:38:36;3.83;;;3.42;;
10313;SDS011;5202;49.138;10.090;2023-06-14T01:41:05;6.03;;;3.58;;
10313;SDS011;5202;49.138;10.090;2023-06-14T01:43:34;4.90;;;3.43;;
10313;SDS011;5202;49.138;10.090;2023-06-14T01:46:04;5.47;;;3.90;;
10313;SDS011;5202;49.138;10.090;2023-06-14T01:48:33;5.17;;;3.70;;
10313;SDS011;5202;49.138;10.090;2023-06-14T01:51:02;4.53;;;3.70;;
10313;SDS011;5202;49.138;10.090;2023-06-14T01:53:31;4.73;;;3.50;;
10313;SDS011;5202;49.138;10.090;2023-06-14T01:56:01;8.03;;;3.80;;
10313;SDS011;5202;49.138;10.090;2023-06-14T01:59:17;4.60;;;3.70;;
10313;SDS011;5202;49.138;10.090;2023-06-14T02:01:55;5.30;;;4.30;;
10313;SDS011;5202;49.138;10.090;2023-06-14T02:04:24;6.30;;;3.93;;
10313;SDS011;5202;49.138;10.090;2023-06-14T02:07:02;7.10;;;4.50;;
10313;SDS011;5202;49.138;10.090;2023-06-14T02:09:32;8.30;;;4.40;;
10313;SDS011;5202;49.138;10.090;2023-06-14T02:12:02;6.03;;;4.50;;
10313;SDS011;5202;49.138;10.090;2023-06-14T02:14:31;10.97;;;5.27;;
10313;SDS011;5202;49.138;10.090;2023-06-14T02:17:00;7.43;;;4.63;;
10313;SDS011;5202;49.138;10.090;2023-06-14T02:19:28;7.07;;;4.10;;
10313;SDS011;5202;49.138;10.090;2023-06-14T02:21:56;5.97;;;4.53;;
10313;SDS011;5202;49.138;10.090;2023-06-14T02:24:24;5.53;;;4.97;;
10313;SDS011;5202;49.138;10.090;2023-06-14T02:26:53;8.10;;;4.20;;
10313;SDS011;5202;49.138;10.090;2023-06-14T02:29:22;6.00;;;4.23;;
10313;SDS011;5202;49.138;10.090;2023-06-14T02:31:50;4.70;;;4.07;;
10313;SDS011;5202;49.138;10.090;2023-06-14T02:34:20;5.30;;;4.57;;
10313;SDS011;5202;49.138;10.090;2023-06-14T02:36:48;6.23;;;4.90;;
10313;SDS011;5202;49.138;10.090;2023-06-14T02:39:16;5.63;;;4.70;;
10313;SDS011;5202;49.138;10.090;2023-06-14T02:41:47;5.40;;;4.80;;
10313;SDS011;5202;49.138;10.090;2023-06-14T02:44:17;6.40;;;4.87;;
10313;SDS011;5202;49.138;10.090;2023-06-14T02:46:47;5.27;;;4.60;;
10313;SDS011;5202;49.138;10.090;2023-06-14T02:49:17;5.60;;;4.30;;
10313;SDS011;5202;49.138;10.090;2023-06-14T02:51:45;8.07;;;4.80;;
10313;SDS011;5202;49.138;10.090;2023-06-14T02:54:13;4.90;;;4.40;;
10313;SDS011;5202;49.138;10.090;2023-06-14T02:56:42;5.13;;;4.37;;
10313;SDS011;5202;49.138;10.090;2023-06-14T02:59:10;6.17;;;4.57;;
10313;SDS011;5202;49.138;10.090;2023-06-14T03:01:39;5.23;;;4.63;;
10313;SDS011;5202;49.138;10.090;2023-06-14T03:04:13;6.97;;;4.23;;
10313;SDS011;5202;49.138;10.090;2023-06-14T03:06:42;4.90;;;4.33;;
10313;SDS011;5202;49.138;10.090;2023-06-14T03:09:19;5.63;;;4.83;;
10313;SDS011;5202;49.138;10.090;2023-06-14T03:11:48;8.30;;;4.67;;
10313;SDS011;5202;49.138;10.090;2023-06-14T03:14:16;5.60;;;4.67;;
10313;SDS011;5202;49.138;10.090;2023-06-14T03:16:46;6.53;;;5.10;;
10313;SDS011;5202;49.138;10.090;2023-06-14T03:19:18;5.53;;;4.87;;
10313;SDS011;5202;49.138;10.090;2023-06-14T03:21:47;5.50;;;4.53;;
10313;SDS011;5202;49.138;10.090;2023-06-14T03:24:28;5.80;;;5.00;;
10313;SDS011;5202;49.138;10.090;2023-06-14T03:26:58;7.90;;;4.90;;
10313;SDS011;5202;49.138;10.090;2023-06-14T03:29:28;6.07;;;4.50;;
10313;SDS011;5202;49.138;10.090;2023-06-14T03:31:57;6.87;;;4.67;;
10313;SDS011;5202;49.138;10.090;2023-06-14T03:34:37;5.70;;;4.37;;
10313;SDS011;5202;49.138;10.090;2023-06-14T03:37:08;8.40;;;4.47;;
10313;SDS011;5202;49.138;10.090;2023-06-14T03:39:37;7.80;;;4.70;;
10313;SDS011;5202;49.138;10.090;2023-06-14T03:42:15;5.77;;;4.73;;
10313;SDS011;5202;49.138;10.090;2023-06-14T03:44:45;6.90;;;4.77;;
10313;SDS011;5202;49.138;10.090;2023-06-14T03:47:14;6.97;;;5.03;;
10313;SDS011;5202;49.138;10.090;2023-06-14T03:49:44;6.27;;;4.90;;
10313;SDS011;5202;49.138;10.090;2023-06-14T03:52:12;8.10;;;4.77;;
10313;SDS011;5202;49.138;10.090;2023-06-14T03:54:44;5.90;;;5.10;;
10313;SDS011;5202;49.138;10.090;2023-06-14T03:57:17;5.53;;;4.77;;
10313;SDS011;5202;49.138;10.090;2023-06-14T03:59:48;5.80;;;4.43;;
10313;SDS011;5202;49.138;10.090;2023-06-14T04:02:17;7.47;;;5.10;;
10313;SDS011;5202;49.138;10.090;2023-06-14T04:08:31;5.63;;;4.67;;
10313;SDS011;5202;49.138;10.090;2023-06-14T04:11:00;4.77;;;4.27;;
10313;SDS011;5202;49.138;10.090;2023-06-14T04:13:29;6.13;;;4.43;;
10313;SDS011;5202;49.138;10.090;2023-06-14T04:15:58;5.60;;;3.90;;
10313;SDS011;5202;49.138;10.090;2023-06-14T04:18:31;4.93;;;4.43;;
10313;SDS011;5202;49.138;10.090;2023-06-14T04:21:00;4.60;;;4.10;;
10313;SDS011;5202;49.138;10.090;2023-06-14T04:23:29;6.37;;;4.77;;
10313;SDS011;5202;49.138;10.090;2023-06-14T04:26:02;5.80;;;4.70;;
10313;SDS011;5202;49.138;10.090;2023-06-14T04:28:30;5.13;;;4.60;;
10313;SDS011;5202;49.138;10.090;2023-06-14T04:31:04;7.07;;;4.60;;
10313;SDS011;5202;49.138;10.090;2023-06-14T04:33:35;5.63;;;4.37;;
10313;SDS011;5202;49.138;10.090;2023-06-14T04:36:14;6.50;;;5.00;;
10313;SDS011;5202;49.138;10.090;2023-06-14T04:38:46;5.13;;;4.33;;
10313;SDS011;5202;49.138;10.090;2023-06-14T04:41:17;5.37;;;4.67;;
10313;SDS011;5202;49.138;10.090;2023-06-14T04:43:45;8.27;;;4.57;;
10313;SDS011;5202;49.138;10.090;2023-06-14T04:46:15;5.00;;;4.00;;
10313;SDS011;5202;49.138;10.090;2023-06-14T04:48:45;5.43;;;4.57;;
10313;SDS011;5202;49.138;10.090;2023-06-14T04:51:15;6.73;;;4.20;;
10313;SDS011;5202;49.138;10.090;2023-06-14T04:53:47;5.43;;;3.87;;
10313;SDS011;5202;49.138;10.090;2023-06-14T04:56:18;9.33;;;4.10;;
10313;SDS011;5202;49.138;10.090;2023-06-14T04:58:48;5.80;;;4.50;;
10313;SDS011;5202;49.138;10.090;2023-06-14T05:01:17;4.20;;;3.53;;
10313;SDS011;5202;49.138;10.090;2023-06-14T05:03:45;3.80;;;3.40;;
10313;SDS011;5202;49.138;10.090;2023-06-14T05:06:16;5.67;;;4.03;;
10313;SDS011;5202;49.138;10.090;2023-06-14T05:08:45;6.50;;;4.40;;
10313;SDS011;5202;49.138;10.090;2023-06-14T05:11:13;8.63;;;4.07;;
10313;SDS011;5202;49.138;10.090;2023-06-14T05:13:44;5.93;;;4.10;;
10313;SDS011;5202;49.138;10.090;2023-06-14T05:16:13;6.60;;;4.27;;
10313;SDS011;5202;49.138;10.090;2023-06-14T05:18:45;5.80;;;4.10;;
10313;SDS011;5202;49.138;10.090;2023-06-14T05:21:13;5.00;;;3.97;;
10313;SDS011;5202;49.138;10.090;2023-06-14T05:23:44;7.47;;;3.92;;
10313;SDS011;5202;49.138;10.090;2023-06-14T05:26:12;5.05;;;3.95;;
10313;SDS011;5202;49.138;10.090;2023-06-14T05:28:41;6.95;;;4.00;;
10313;SDS011;5202;49.138;10.090;2023-06-14T05:31:10;7.13;;;3.80;;
10313;SDS011;5202;49.138;10.090;2023-06-14T05:33:39;4.38;;;3.63;;
10313;SDS011;5202;49.138;10.090;2023-06-14T05:36:07;6.13;;;3.90;;
10313;SDS011;5202;49.138;10.090;2023-06-14T05:38:35;5.35;;;4.00;;
10313;SDS011;5202;49.138;10.090;2023-06-14T05:41:03;5.88;;;4.18;;
10313;SDS011;5202;49.138;10.090;2023-06-14T05:43:32;5.43;;;4.00;;
10313;SDS011;5202;49.138;10.090;2023-06-14T05:46:00;3.85;;;3.45;;
10313;SDS011;5202;49.138;10.090;2023-06-14T05:48:30;5.13;;;4.32;;
10313;SDS011;5202;49.138;10.090;2023-06-14T05:50:59;4.80;;;4.03;;
10313;SDS011;5202;49.138;10.090;2023-06-14T05:53:27;4.80;;;3.70;;
10313;SDS011;5202;49.138;10.090;2023-06-14T05:55:55;8.35;;;4.00;;
10313;SDS011;5202;49.138;10.090;2023-06-14T05:58:23;4.55;;;3.72;;
10313;SDS011;5202;49.138;10.090;2023-06-14T06:00:52;4.30;;;3.90;;
10313;SDS011;5202;49.138;10.090;2023-06-14T06:03:21;6.80;;;4.25;;
10313;SDS011;5202;49.138;10.090;2023-06-14T06:06:16;4.60;;;3.90;;
10313;SDS011;5202;49.138;10.090;2023-06-14T06:08:44;6.65;;;3.85;;
10313;SDS011;5202;49.138;10.090;2023-06-14T06:11:13;5.20;;;3.90;;
10313;SDS011;5202;49.138;10.090;2023-06-14T06:13:41;7.05;;;3.78;;
10313;SDS011;5202;49.138;10.090;2023-06-14T06:16:09;6.00;;;3.40;;
10313;SDS011;5202;49.138;10.090;2023-06-14T06:18:38;8.15;;;3.80;;
10313;SDS011;5202;49.138;10.090;2023-06-14T06:21:07;3.90;;;3.55;;
10313;SDS011;5202;49.138;10.090;2023-06-14T06:23:37;5.78;;;4.10;;
10313;SDS011;5202;49.138;10.090;2023-06-14T06:26:06;7.15;;;4.10;;
10313;SDS011;5202;49.138;10.090;2023-06-14T06:28:34;6.15;;;3.97;;
10313;SDS011;5202;49.138;10.090;2023-06-14T06:31:02;4.32;;;3.53;;
10313;SDS011;5202;49.138;10.090;2023-06-14T06:33:32;6.05;;;3.78;;
10313;SDS011;5202;49.138;10.090;2023-06-14T06:36:00;5.15;;;4.28;;
10313;SDS011;5202;49.138;10.090;2023-06-14T06:38:29;7.45;;;3.50;;
10313;SDS011;5202;49.138;10.090;2023-06-14T06:40:58;5.63;;;4.00;;
10313;SDS011;5202;49.138;10.090;2023-06-14T06:43:26;4.95;;;3.47;;
10313;SDS011;5202;49.138;10.090;2023-06-14T06:45:56;4.70;;;3.70;;
10313;SDS011;5202;49.138;10.090;2023-06-14T06:48:25;5.57;;;3.80;;
10313;SDS011;5202;49.138;10.090;2023-06-14T06:50:54;4.07;;;3.38;;
10313;SDS011;5202;49.138;10.090;2023-06-14T06:53:23;4.55;;;3.80;;
10313;SDS011;5202;49.138;10.090;2023-06-14T06:56:06;6.03;;;3.78;;
10313;SDS011;5202;49.138;10.090;2023-06-14T06:58:35;5.60;;;3.60;;
10313;SDS011;5202;49.138;10.090;2023-06-14T07:01:03;5.00;;;4.05;;
10313;SDS011;5202;49.138;10.090;2023-06-14T07:03:31;7.05;;;3.95;;
10313;SDS011;5202;49.138;10.090;2023-06-14T07:05:59;6.53;;;3.95;;
10313;SDS011;5202;49.138;10.090;2023-06-14T07:08:28;5.00;;;3.47;;
10313;SDS011;5202;49.138;10.090;2023-06-14T07:10:56;6.70;;;3.67;;
10313;SDS011;5202;49.138;10.090;2023-06-14T07:13:26;4.13;;;3.55;;
10313;SDS011;5202;49.138;10.090;2023-06-14T07:15:54;6.03;;;3.70;;
10313;SDS011;5202;49.138;10.090;2023-06-14T07:18:27;5.03;;;3.78;;
10313;SDS011;5202;49.138;10.090;2023-06-14T07:20:56;4.30;;;3.67;;
10313;SDS011;5202;49.138;10.090;2023-06-14T07:23:24;3.92;;;3.22;;
10313;SDS011;5202;49.138;10.090;2023-06-14T07:25:52;7.30;;;3.63;;
10313;SDS011;5202;49.138;10.090;2023-06-14T07:28:21;4.70;;;3.53;;
10313;SDS011;5202;49.138;10.090;2023-06-14T07:30:50;4.70;;;3.83;;
10313;SDS011;5202;49.138;10.090;2023-06-14T07:33:19;4.05;;;3.65;;
10313;SDS011;5202;49.138;10.090;2023-06-14T07:35:47;6.75;;;3.40;;
10313;SDS011;5202;49.138;10.090;2023-06-14T07:38:16;6.30;;;3.67;;
10313;SDS011;5202;49.138;10.090;2023-06-14T07:40:44;5.88;;;3.92;;
10313;SDS011;5202;49.138;10.090;2023-06-14T07:43:13;3.70;;;3.40;;
10313;SDS011;5202;49.138;10.090;2023-06-14T07:45:41;5.72;;;3.55;;
10313;SDS011;5202;49.138;10.090;2023-06-14T07:48:29;3.92;;;3.55;;
10313;SDS011;5202;49.138;10.090;2023-06-14T07:50:58;7.65;;;3.80;;
10313;SDS011;5202;49.138;10.090;2023-06-14T07:53:27;6.07;;;3.70;;
10313;SDS011;5202;49.138;10.090;2023-06-14T07:55:57;5.55;;;3.72;;
10313;SDS011;5202;49.138;10.090;2023-06-14T07:58:26;4.80;;;3.53;;
10313;SDS011;5202;49.138;10.090;2023-06-14T08:00:54;4.45;;;3.65;;
10313;SDS011;5202;49.138;10.090;2023-06-14T08:03:23;6.75;;;3.70;;
10313;SDS011;5202;49.138;10.090;2023-06-14T08:05:53;4.28;;;3.60;;
10313;SDS011;5202;49.138;10.090;2023-06-14T08:08:21;5.07;;;3.38;;
10313;SDS011;5202;49.138;10.090;2023-06-14T08:10:49;4.53;;;3.75;;
10313;SDS011;5202;49.138;10.090;2023-06-14T08:13:18;4.68;;;3.40;;
10313;SDS011;5202;49.138;10.090;2023-06-14T08:15:46;4.18;;;3.20;;
10313;SDS011;5202;49.138;10.090;2023-06-14T08:18:14;4.55;;;3.55;;
10313;SDS011;5202;49.138;10.090;2023-06-14T08:20:43;7.30;;;3.78;;
10313;SDS011;5202;49.138;10.090;2023-06-14T08:23:12;5.60;;;3.72;;
10313;SDS011;5202;49.138;10.090;2023-06-14T08:25:42;4.10;;;3.40;;
10313;SDS011;5202;49.138;10.090;2023-06-14T08:28:10;5.15;;;4.05;;
10313;SDS011;5202;49.138;10.090;2023-06-14T08:30:38;4.90;;;3.70;;
10313;SDS011;5202;49.138;10.090;2023-06-14T08:33:07;3.60;;;3.17;;
10313;SDS011;5202;49.138;10.090;2023-06-14T08:35:43;6.65;;;3.85;;
10313;SDS011;5202;49.138;10.090;2023-06-14T08:38:13;4.30;;;3.40;;
10313;SDS011;5202;49.138;10.090;2023-06-14T08:40:42;3.85;;;3.38;;
10313;SDS011;5202;49.138;10.090;2023-06-14T08:43:10;4.55;;;3.63;;
10313;SDS011;5202;49.138;10.090;2023-06-14T08:45:38;5.35;;;3.60;;
10313;SDS011;5202;49.138;10.090;2023-06-14T08:48:07;5.72;;;3.20;;
10313;SDS011;5202;49.138;10.090;2023-06-14T08:50:36;4.93;;;3.45;;
10313;SDS011;5202;49.138;10.090;2023-06-14T08:53:08;4.22;;;2.90;;
10313;SDS011;5202;49.138;10.090;2023-06-14T08:55:46;4.35;;;3.65;;
10313;SDS011;5202;49.138;10.090;2023-06-14T08:58:14;3.83;;;3.42;;
10313;SDS011;5202;49.138;10.090;2023-06-14T09:00:44;5.13;;;3.40;;
10313;SDS011;5202;49.138;10.090;2023-06-14T09:03:13;3.40;;;3.10;;
10313;SDS011;5202;49.138;10.090;2023-06-14T09:05:42;5.30;;;3.63;;
10313;SDS011;5202;49.138;10.090;2023-06-14T09:08:12;4.03;;;3.55;;
10313;SDS011;5202;49.138;10.090;2023-06-14T09:10:42;4.63;;;3.20;;
10313;SDS011;5202;49.138;10.090;2023-06-14T09:13:12;5.03;;;3.40;;
10313;SDS011;5202;49.138;10.090;2023-06-14T09:15:40;8.20;;;4.38;;
10313;SDS011;5202;49.138;10.090;2023-06-14T09:18:08;3.55;;;3.25;;
10313;SDS011;5202;49.138;10.090;2023-06-14T09:20:37;3.95;;;3.53;;
10313;SDS011;5202;49.138;10.090;2023-06-14T09:23:05;4.55;;;3.60;;
10313;SDS011;5202;49.138;10.090;2023-06-14T09:25:42;4.28;;;3.55;;
10313;SDS011;5202;49.138;10.090;2023-06-14T09:28:12;6.28;;;3.45;;
10313;SDS011;5202;49.138;10.090;2023-06-14T09:30:41;4.45;;;3.67;;
10313;SDS011;5202;49.138;10.090;2023-06-14T09:33:09;3.97;;;3.10;;
10313;SDS011;5202;49.138;10.090;2023-06-14T09:35:39;4.38;;;3.17;;
10313;SDS011;5202;49.138;10.090;2023-06-14T09:38:08;5.13;;;3.50;;
10313;SDS011;5202;49.138;10.090;2023-06-14T09:40:36;4.38;;;3.22;;
10313;SDS011;5202;49.138;10.090;2023-06-14T09:43:06;3.60;;;3.25;;
10313;SDS011;5202;49.138;10.090;2023-06-14T09:45:38;11.35;;;3.70;;
10313;SDS011;5202;49.138;10.090;2023-06-14T09:48:07;4.97;;;3.40;;
10313;SDS011;5202;49.138;10.090;2023-06-14T09:50:36;3.45;;;3.00;;
10313;SDS011;5202;49.138;10.090;2023-06-14T09:53:06;4.15;;;3.35;;
10313;SDS011;5202;49.138;10.090;2023-06-14T09:55:38;6.00;;;3.83;;
10313;SDS011;5202;49.138;10.090;2023-06-14T09:58:10;5.25;;;2.70;;
10313;SDS011;5202;49.138;10.090;2023-06-14T10:00:39;6.55;;;3.10;;
10313;SDS011;5202;49.138;10.090;2023-06-14T10:03:13;3.88;;;3.40;;
10313;SDS011;5202;49.138;10.090;2023-06-14T10:05:49;5.70;;;3.00;;
10313;SDS011;5202;49.138;10.090;2023-06-14T10:08:19;3.22;;;2.88;;
10313;SDS011;5202;49.138;10.090;2023-06-14T10:10:52;5.60;;;2.97;;
10313;SDS011;5202;49.138;10.090;2023-06-14T10:13:22;3.90;;;3.50;;
10313;SDS011;5202;49.138;10.090;2023-06-14T10:15:55;4.15;;;3.47;;
10313;SDS011;5202;49.138;10.090;2023-06-14T10:18:35;5.07;;;2.75;;
10313;SDS011;5202;49.138;10.090;2023-06-14T10:21:13;5.18;;;2.92;;
10313;SDS011;5202;49.138;10.090;2023-06-14T10:23:49;4.25;;;3.05;;
10313;SDS011;5202;49.138;10.090;2023-06-14T10:26:22;3.08;;;2.78;;
10313;SDS011;5202;49.138;10.090;2023-06-14T10:28:59;5.18;;;3.40;;
10313;SDS011;5202;49.138;10.090;2023-06-14T10:31:42;4.57;;;3.20;;
10313;SDS011;5202;49.138;10.090;2023-06-14T10:34:12;7.05;;;3.97;;
10313;SDS011;5202;49.138;10.090;2023-06-14T10:39:37;4.50;;;3.22;;
10313;SDS011;5202;49.138;10.090;2023-06-14T10:42:08;3.47;;;3.15;;
10313;SDS011;5202;49.138;10.090;2023-06-14T10:44:42;6.85;;;2.75;;
10313;SDS011;5202;49.138;10.090;2023-06-14T10:47:20;4.85;;;3.08;;
10313;SDS011;5202;49.138;10.090;2023-06-14T10:49:55;5.10;;;4.03;;
10313;SDS011;5202;49.138;10.090;2023-06-14T10:52:32;4.85;;;3.40;;
10313;SDS011;5202;49.138;10.090;2023-06-14T10:55:03;5.38;;;2.83;;
10313;SDS011;5202;49.138;10.090;2023-06-14T10:57:38;3.95;;;2.88;;
10313;SDS011;5202;49.138;10.090;2023-06-14T11:00:20;4.28;;;3.20;;
10313;SDS011;5202;49.138;10.090;2023-06-14T11:06:01;6.82;;;3.75;;
10313;SDS011;5202;49.138;10.090;2023-06-14T11:12:02;6.00;;;3.15;;
10313;SDS011;5202;49.138;10.090;2023-06-14T11:14:31;4.68;;;3.08;;
10313;SDS011;5202;49.138;10.090;2023-06-14T11:17:01;3.55;;;3.08;;
10313;SDS011;5202;49.138;10.090;2023-06-14T11:19:30;4.32;;;3.10;;
10313;SDS011;5202;49.138;10.090;2023-06-14T11:21:58;5.40;;;3.10;;
10313;SDS011;5202;49.138;10.090;2023-06-14T11:24:27;4.75;;;2.92;;
10313;SDS011;5202;49.138;10.090;2023-06-14T11:26:55;3.85;;;2.95;;
10313;SDS011;5202;49.138;10.090;2023-06-14T11:29:24;5.75;;;3.40;;
10313;SDS011;5202;49.138;10.090;2023-06-14T11:31:52;4.35;;;2.85;;
10313;SDS011;5202;49.138;10.090;2023-06-14T11:34:24;5.60;;;2.97;;
10313;SDS011;5202;49.138;10.090;2023-06-14T11:36:52;5.95;;;3.10;;
10313;SDS011;5202;49.138;10.090;2023-06-14T11:39:23;3.53;;;3.10;;
10313;SDS011;5202;49.138;10.090;2023-06-14T11:41:53;3.17;;;2.85;;
10313;SDS011;5202;49.138;10.090;2023-06-14T11:44:22;3.22;;;2.80;;
10313;SDS011;5202;49.138;10.090;2023-06-14T11:46:51;5.05;;;2.90;;
10313;SDS011;5202;49.138;10.090;2023-06-14T11:49:19;4.03;;;2.92;;
10313;SDS011;5202;49.138;10.090;2023-06-14T11:51:49;4.25;;;3.10;;
10313;SDS011;5202;49.138;10.090;2023-06-14T11:54:17;3.10;;;2.75;;
10313;SDS011;5202;49.138;10.090;2023-06-14T11:56:46;6.60;;;3.08;;
10313;SDS011;5202;49.138;10.090;2023-06-14T11:59:14;4.43;;;2.63;;
10313;SDS011;5202;49.138;10.090;2023-06-14T12:01:42;4.93;;;2.75;;
10313;SDS011;5202;49.138;10.090;2023-06-14T12:04:13;5.72;;;3.10;;
10313;SDS011;5202;49.138;10.090;2023-06-14T12:06:41;4.25;;;2.50;;
10313;SDS011;5202;49.138;10.090;2023-06-14T12:09:11;4.38;;;2.95;;
10313;SDS011;5202;49.138;10.090;2023-06-14T12:11:43;5.55;;;2.92;;
10313;SDS011;5202;49.138;10.090;2023-06-14T12:14:12;4.75;;;3.03;;
10313;SDS011;5202;49.138;10.090;2023-06-14T12:16:40;4.53;;;3.20;;
10313;SDS011;5202;49.138;10.090;2023-06-14T12:19:09;3.20;;;2.70;;
10313;SDS011;5202;49.138;10.090;2023-06-14T12:21:41;4.20;;;2.85;;
10313;SDS011;5202;49.138;10.090;2023-06-14T12:24:12;5.50;;;3.13;;
10313;SDS011;5202;49.138;10.090;2023-06-14T12:26:40;4.03;;;3.08;;
10313;SDS011;5202;49.138;10.090;2023-06-14T12:29:09;3.25;;;2.80;;
10313;SDS011;5202;49.138;10.090;2023-06-14T12:31:39;3.53;;;3.20;;
10313;SDS011;5202;49.138;10.090;2023-06-14T12:34:08;6.25;;;3.00;;
10313;SDS011;5202;49.138;10.090;2023-06-14T12:36:37;3.25;;;2.40;;
10313;SDS011;5202;49.138;10.090;2023-06-14T12:39:12;3.97;;;3.08;;
10313;SDS011;5202;49.138;10.090;2023-06-14T12:41:40;5.15;;;2.97;;
10313;SDS011;5202;49.138;10.090;2023-06-14T12:44:09;4.18;;;3.08;;
10313;SDS011;5202;49.138;10.090;2023-06-14T12:46:38;5.65;;;3.35;;
10313;SDS011;5202;49.138;10.090;2023-06-14T12:49:08;3.85;;;2.90;;
10313;SDS011;5202;49.138;10.090;2023-06-14T12:51:37;4.72;;;2.67;;
10313;SDS011;5202;49.138;10.090;2023-06-14T12:54:07;4.43;;;3.00;;
10313;SDS011;5202;49.138;10.090;2023-06-14T12:56:36;3.05;;;2.75;;
10313;SDS011;5202;49.138;10.090;2023-06-14T12:59:05;7.38;;;2.85;;
10313;SDS011;5202;49.138;10.090;2023-06-14T13:01:34;4.80;;;3.28;;
10313;SDS011;5202;49.138;10.090;2023-06-14T13:04:02;4.10;;;2.85;;
10313;SDS011;5202;49.138;10.090;2023-06-14T13:06:31;4.28;;;2.88;;
10313;SDS011;5202;49.138;10.090;2023-06-14T13:08:59;3.30;;;2.83;;
10313;SDS011;5202;49.138;10.090;2023-06-14T13:11:28;4.28;;;2.78;;
10313;SDS011;5202;49.138;10.090;2023-06-14T13:13:58;3.72;;;3.08;;
10313;SDS011;5202;49.138;10.090;2023-06-14T13:16:34;3.40;;;2.83;;
10313;SDS011;5202;49.138;10.090;2023-06-14T13:19:02;5.60;;;3.65;;
10313;SDS011;5202;49.138;10.090;2023-06-14T13:21:30;5.32;;;3.22;;
10313;SDS011;5202;49.138;10.090;2023-06-14T13:23:59;5.18;;;2.85;;
10313;SDS011;5202;49.138;10.090;2023-06-14T13:26:27;3.15;;;2.80;;
10313;SDS011;5202;49.138;10.090;2023-06-14T13:28:55;3.38;;;2.85;;
10313;SDS011;5202;49.138;10.090;2023-06-14T13:31:25;5.03;;;2.90;;
10313;SDS011;5202;49.138;10.090;2023-06-14T13:33:53;4.82;;;3.03;;
10313;SDS011;5202;49.138;10.090;2023-06-14T13:36:21;5.03;;;3.13;;
10313;SDS011;5202;49.138;10.090;2023-06-14T13:38:50;4.15;;;3.22;;
10313;SDS011;5202;49.138;10.090;2023-06-14T13:41:19;3.55;;;3.10;;
10313;SDS011;5202;49.138;10.090;2023-06-14T13:43:47;4.63;;;2.75;;
10313;SDS011;5202;49.138;10.090;2023-06-14T13:46:17;3.50;;;2.55;;
10313;SDS011;5202;49.138;10.090;2023-06-14T13:48:46;5.13;;;3.00;;
10313;SDS011;5202;49.138;10.090;2023-06-14T13:51:14;3.60;;;3.08;;
10313;SDS011;5202;49.138;10.090;2023-06-14T13:53:45;3.75;;;2.90;;
10313;SDS011;5202;49.138;10.090;2023-06-14T13:56:15;6.93;;;3.40;;
10313;SDS011;5202;49.138;10.090;2023-06-14T13:58:52;3.88;;;3.00;;
10313;SDS011;5202;49.138;10.090;2023-06-14T14:01:22;3.42;;;3.13;;
10313;SDS011;5202;49.138;10.090;2023-06-14T14:03:55;6.38;;;2.80;;
10313;SDS011;5202;49.138;10.090;2023-06-14T14:06:29;3.22;;;2.90;;
10313;SDS011;5202;49.138;10.090;2023-06-14T14:08:58;7.43;;;3.33;;
10313;SDS011;5202;49.138;10.090;2023-06-14T14:11:26;3.38;;;2.83;;
10313;SDS011;5202;49.138;10.090;2023-06-14T14:13:55;3.88;;;3.40;;
10313;SDS011;5202;49.138;10.090;2023-06-14T14:16:26;3.50;;;2.88;;
10313;SDS011;5202;49.138;10.090;2023-06-14T14:18:54;5.97;;;2.90;;
10313;SDS011;5202;49.138;10.090;2023-06-14T14:21:23;4.70;;;3.10;;
10313;SDS011;5202;49.138;10.090;2023-06-14T14:23:51;5.28;;;3.08;;
10313;SDS011;5202;49.138;10.090;2023-06-14T14:26:19;3.40;;;2.83;;
10313;SDS011;5202;49.138;10.090;2023-06-14T14:28:48;4.40;;;3.30;;
10313;SDS011;5202;49.138;10.090;2023-06-14T14:31:16;5.57;;;2.95;;
10313;SDS011;5202;49.138;10.090;2023-06-14T14:33:46;5.25;;;2.88;;
10313;SDS011;5202;49.138;10.090;2023-06-14T14:36:15;4.28;;;2.78;;
10313;SDS011;5202;49.138;10.090;2023-06-14T14:38:44;4.38;;;3.25;;
10313;SDS011;5202;49.138;10.090;2023-06-14T14:41:13;3.75;;;3.20;;
10313;SDS011;5202;49.138;10.090;2023-06-14T14:43:41;4.50;;;3.42;;
10313;SDS011;5202;49.138;10.090;2023-06-14T14:46:10;3.60;;;3.00;;
10313;SDS011;5202;49.138;10.090;2023-06-14T14:48:38;3.22;;;2.85;;
10313;SDS011;5202;49.138;10.090;2023-06-14T14:51:08;5.30;;;2.85;;
10313;SDS011;5202;49.138;10.090;2023-06-14T14:53:36;4.35;;;2.55;;
10313;SDS011;5202;49.138;10.090;2023-06-14T14:56:04;3.53;;;3.05;;
10313;SDS011;5202;49.138;10.090;2023-06-14T14:58:32;4.88;;;3.40;;
10313;SDS011;5202;49.138;10.090;2023-06-14T15:01:01;7.25;;;3.45;;
10313;SDS011;5202;49.138;10.090;2023-06-14T15:03:29;3.67;;;3.10;;
10313;SDS011;5202;49.138;10.090;2023-06-14T15:06:05;4.07;;;3.20;;
10313;SDS011;5202;49.138;10.090;2023-06-14T15:08:35;5.20;;;2.78;;
10313;SDS011;5202;49.138;10.090;2023-06-14T15:11:04;6.57;;;3.40;;
10313;SDS011;5202;49.138;10.090;2023-06-14T15:13:33;4.85;;;3.22;;
10313;SDS011;5202;49.138;10.090;2023-06-14T15:16:01;3.47;;;3.00;;
10313;SDS011;5202;49.138;10.090;2023-06-14T15:18:29;6.03;;;3.20;;